עמוד ראשי
METAR-TAF:

METAR-TAF

שדות תעופה :

אי הלורד האו, אוסטרליה

קו רוחב: 31-32-18S, קו אורך: 159-04-38E, גובה: 5מטר

תצפית מזג אוויר נוכחית

הדו"ח נערך לפני 20דקות, בשעה 11:30 UTC
רוח 5קשר מכיוון מזרח/דרום-מזרח
טמפרטורת 15 צלסיוס
לחות 67%
לחץ 1009 hPa
ראות 10 קילומטר או יותר
עננים פזורים בגובה 6100רגל

METAR: YLHI 151130Z AUTO 12005KT 9999 // SCT061 15/09 Q1009 RF00.0/000.2

זמן: 21:50 (11:50 UTC)

תחזית

הדו"ח נערך לפני 6 שעות ו 23דקות, בשעה 05:27 UTC
תחזית בתוקף מ 15 ב 06 UTC עד 16 ב 06 UTC
רוח 6קשר מכיוון דרום
ראות 10 קילומטר או יותר
עננים פזורים בגובה 4000רגל
גשם קל
מ 15 ב 1800UTC
רוח 12קשר מכיוון דרום/דרום-מערב
ראות 10 קילומטר או יותר
עננים פזורים בגובה 3500רגל
ממטרי גשם קלים
מ 16 ב 0200UTC
רוח 15קשר מכיוון מערב/דרום-מערב
ראות: 4000מטר
עננים פזורים בגובה 3500רגל
עננים פזורים בגובה 2500רגל
עננים בינוניים בגובה 3500רגל , קומולוס מיגדלי.
ממטרי גשם קלים, ממטרי גשם,

TAF: YLHI 150527Z 1506/1606 19006KT 9999 -RA SCT040 FM151800 20012KT 9999 -SHRA SCT035 FM160200 24015KT 9999 -SHRA SCT035 INTER 1602/1606 4000 SHRA SCT025 BKN035TCU

תצפיות ותחזיות מזג אוויר לגבי יותר מ- 4,000 שדות תעופה ברחבי העולם. דוחות METAR ו- TAF.

התחנות הזמינות מסומנות בנקודות צהובות ואדומות על גבי המפה.

העבר את העכבר לנקודה הצבעונית על מנת לראות את שם התחנה.

לאחר מכן, לחץ כדי לראות את תוכן ואת תחזיות מזג האוויר.

כדי לשנות את המפה: לחץ על הכפתורים הירוקים עם הפלוס השחור כדי להתקרב; על הכפתור הירוק עם המקף כדי להתרחק; או בחיצים הירוקים למפות סמוכות.


METAR-TAF: